DAL6299 KMSY-KDTW
Flight info
| Callsign | DAL6299 |
|---|---|
| Flight time | 2h 1m |
| Altitude | 39000 |
| Route | SQS J35 MEM J29 PXV WWODD HANBL3 |
| Aircraft | B763/H-SDE3FGHIM3RWXY/LB1 |
Departure
| Time | 2026-05-03 21:21 |
|---|---|
| Airport | Louis Armstrong New Orleans International Airport (KMSY) |
Arrival
| Time | 2026-05-03 23:22 |
|---|---|
| Airport | Detroit Metropolitan Wayne County Airport (KDTW) |
| Time | Latitude | Longitude | Altitude | Speed | Heading |
|---|---|---|---|---|---|
| 2026-05-03 20:48 | 29.99405 | -90.25317 | 11 ft | 0 kts | 268° |
| 2026-05-03 21:09 | 29.99406 | -90.25306 | 11 ft | 2 kts | 268° |
| 2026-05-03 21:09 | 29.99406 | -90.25288 | 11 ft | 2 kts | 268° |
| 2026-05-03 21:10 | 29.99407 | -90.25272 | 12 ft | 1 kts | 268° |
| 2026-05-03 21:10 | 29.99407 | -90.25260 | 11 ft | 2 kts | 247° |
| 2026-05-03 21:10 | 29.99417 | -90.25246 | 11 ft | 2 kts | 207° |
| 2026-05-03 21:10 | 29.99424 | -90.25243 | 12 ft | 0 kts | 188° |
| 2026-05-03 21:11 | 29.99429 | -90.25243 | 11 ft | 0 kts | 191° |
| 2026-05-03 21:12 | 29.99425 | -90.25243 | 11 ft | 2 kts | 187° |
| 2026-05-03 21:13 | 29.99383 | -90.25243 | 11 ft | 8 kts | 178° |
| 2026-05-03 21:13 | 29.99320 | -90.25245 | 11 ft | 10 kts | 189° |
| 2026-05-03 21:13 | 29.99248 | -90.25282 | 11 ft | 12 kts | 218° |
| 2026-05-03 21:13 | 29.99205 | -90.25376 | 11 ft | 14 kts | 263° |
| 2026-05-03 21:14 | 29.99209 | -90.25497 | 11 ft | 15 kts | 274° |
| 2026-05-03 21:14 | 29.99190 | -90.25604 | 11 ft | 13 kts | 229° |
| 2026-05-03 21:14 | 29.99113 | -90.25644 | 11 ft | 11 kts | 195° |
| 2026-05-03 21:14 | 29.99039 | -90.25667 | 11 ft | 10 kts | 195° |
| 2026-05-03 21:15 | 29.98977 | -90.25699 | 11 ft | 10 kts | 227° |
| 2026-05-03 21:15 | 29.98960 | -90.25788 | 11 ft | 13 kts | 284° |
| 2026-05-03 21:15 | 29.98990 | -90.25903 | 11 ft | 15 kts | 287° |
| 2026-05-03 21:15 | 29.99021 | -90.26028 | 11 ft | 16 kts | 285° |
| 2026-05-03 21:16 | 29.99053 | -90.26157 | 11 ft | 16 kts | 285° |
| 2026-05-03 21:16 | 29.99082 | -90.26279 | 11 ft | 15 kts | 286° |
| 2026-05-03 21:16 | 29.99111 | -90.26399 | 11 ft | 14 kts | 285° |
| 2026-05-03 21:16 | 29.99137 | -90.26511 | 11 ft | 14 kts | 285° |
| 2026-05-03 21:17 | 29.99163 | -90.26618 | 11 ft | 14 kts | 286° |
| 2026-05-03 21:17 | 29.99182 | -90.26694 | 11 ft | 15 kts | 285° |
| 2026-05-03 21:17 | 29.99220 | -90.26857 | 11 ft | 16 kts | 285° |
| 2026-05-03 21:17 | 29.99252 | -90.26990 | 11 ft | 17 kts | 286° |
| 2026-05-03 21:18 | 29.99287 | -90.27130 | 11 ft | 18 kts | 286° |
| 2026-05-03 21:18 | 29.99323 | -90.27279 | 11 ft | 19 kts | 285° |
| 2026-05-03 21:18 | 29.99360 | -90.27434 | 11 ft | 19 kts | 285° |
| 2026-05-03 21:18 | 29.99395 | -90.27580 | 11 ft | 17 kts | 285° |
| 2026-05-03 21:19 | 29.99426 | -90.27711 | 11 ft | 16 kts | 286° |
| 2026-05-03 21:19 | 29.99455 | -90.27828 | 11 ft | 14 kts | 286° |
| 2026-05-03 21:19 | 29.99484 | -90.27949 | 11 ft | 16 kts | 285° |
| 2026-05-03 21:19 | 29.99515 | -90.28084 | 11 ft | 17 kts | 285° |
| 2026-05-03 21:20 | 29.99568 | -90.28185 | 11 ft | 13 kts | 350° |
| 2026-05-03 21:20 | 29.99648 | -90.28153 | 11 ft | 10 kts | 59° |
| 2026-05-03 21:20 | 29.99639 | -90.28068 | 11 ft | 19 kts | 108° |
| 2026-05-03 21:20 | 29.99545 | -90.27677 | 11 ft | 97 kts | 106° |
| 2026-05-03 21:21 | 29.99263 | -90.26492 | 47 ft | 201 kts | 103° |
| 2026-05-03 21:21 | 29.98887 | -90.24735 | 856 ft | 253 kts | 103° |
| 2026-05-03 21:21 | 29.98515 | -90.22753 | 2351 ft | 251 kts | 101° |
| 2026-05-03 21:21 | 29.98175 | -90.20909 | 3568 ft | 229 kts | 101° |
| 2026-05-03 21:22 | 29.97864 | -90.19074 | 4037 ft | 242 kts | 98° |
| 2026-05-03 21:22 | 29.97584 | -90.17087 | 4378 ft | 264 kts | 97° |
| 2026-05-03 21:22 | 29.97333 | -90.14974 | 5161 ft | 268 kts | 95° |
| 2026-05-03 21:22 | 29.97529 | -90.12861 | 6010 ft | 269 kts | 67° |
| 2026-05-03 21:23 | 29.98598 | -90.11144 | 6791 ft | 271 kts | 38° |
| 2026-05-03 21:23 | 30.00287 | -90.10249 | 7589 ft | 275 kts | 8° |
| 2026-05-03 21:23 | 30.02186 | -90.10433 | 8403 ft | 278 kts | 341° |
| 2026-05-03 21:23 | 30.03997 | -90.11124 | 9267 ft | 280 kts | 345° |
| 2026-05-03 21:24 | 30.05914 | -90.11536 | 10130 ft | 284 kts | 351° |
| 2026-05-03 21:24 | 30.07932 | -90.11803 | 10528 ft | 306 kts | 352° |
| 2026-05-03 21:24 | 30.10164 | -90.11990 | 10606 ft | 339 kts | 354° |
| 2026-05-03 21:24 | 30.12541 | -90.12129 | 11285 ft | 352 kts | 354° |
| 2026-05-03 21:25 | 30.15008 | -90.12258 | 12191 ft | 357 kts | 354° |
| 2026-05-03 21:25 | 30.17471 | -90.12379 | 13094 ft | 362 kts | 353° |
| 2026-05-03 21:25 | 30.20001 | -90.12498 | 13964 ft | 367 kts | 353° |
| 2026-05-03 21:25 | 30.22545 | -90.12616 | 14809 ft | 372 kts | 353° |
| 2026-05-03 21:26 | 30.25119 | -90.12734 | 15631 ft | 377 kts | 353° |
| 2026-05-03 21:26 | 30.27743 | -90.12852 | 16435 ft | 382 kts | 353° |
| 2026-05-03 21:26 | 30.30390 | -90.12972 | 17227 ft | 387 kts | 353° |
| 2026-05-03 21:26 | 30.33095 | -90.13094 | 18044 ft | 391 kts | 353° |
| 2026-05-03 21:27 | 30.35802 | -90.13216 | 18814 ft | 396 kts | 352° |
| 2026-05-03 21:27 | 30.38574 | -90.13341 | 19586 ft | 401 kts | 352° |
| 2026-05-03 21:27 | 30.41358 | -90.13467 | 20340 ft | 406 kts | 351° |
| 2026-05-03 21:27 | 30.44177 | -90.13595 | 21105 ft | 410 kts | 351° |
| 2026-05-03 21:28 | 30.47010 | -90.13724 | 21836 ft | 415 kts | 350° |
| 2026-05-03 21:28 | 30.49927 | -90.13856 | 22578 ft | 420 kts | 350° |
| 2026-05-03 21:28 | 30.52849 | -90.13991 | 23263 ft | 425 kts | 349° |
| 2026-05-03 21:28 | 30.55803 | -90.14125 | 23953 ft | 430 kts | 349° |
| 2026-05-03 21:29 | 30.58763 | -90.14262 | 24626 ft | 434 kts | 349° |
| 2026-05-03 21:29 | 30.61816 | -90.14401 | 25309 ft | 439 kts | 349° |
| 2026-05-03 21:29 | 30.64870 | -90.14542 | 25970 ft | 443 kts | 349° |
| 2026-05-03 21:29 | 30.67924 | -90.14681 | 26565 ft | 449 kts | 349° |
| 2026-05-03 21:30 | 30.71050 | -90.14824 | 27225 ft | 453 kts | 349° |
| 2026-05-03 21:30 | 30.74176 | -90.14967 | 27826 ft | 458 kts | 349° |
| 2026-05-03 21:30 | 30.77383 | -90.15114 | 28442 ft | 462 kts | 349° |
| 2026-05-03 21:30 | 30.80602 | -90.15260 | 29116 ft | 465 kts | 349° |
| 2026-05-03 21:31 | 30.83810 | -90.15409 | 29639 ft | 471 kts | 349° |
| 2026-05-03 21:31 | 30.87070 | -90.15557 | 30256 ft | 475 kts | 349° |
| 2026-05-03 21:31 | 30.90398 | -90.15711 | 30833 ft | 480 kts | 349° |
| 2026-05-03 21:31 | 30.93735 | -90.15865 | 31355 ft | 485 kts | 350° |
| 2026-05-03 21:32 | 30.97081 | -90.16018 | 31917 ft | 489 kts | 350° |
| 2026-05-03 21:32 | 31.00478 | -90.16171 | 32635 ft | 488 kts | 350° |
| 2026-05-03 21:32 | 31.03869 | -90.16326 | 33345 ft | 488 kts | 350° |
| 2026-05-03 21:32 | 31.07252 | -90.16480 | 34012 ft | 487 kts | 350° |
| 2026-05-03 21:33 | 31.10582 | -90.16633 | 34672 ft | 486 kts | 350° |
| 2026-05-03 21:33 | 31.13959 | -90.16787 | 35287 ft | 486 kts | 350° |
| 2026-05-03 21:33 | 31.17295 | -90.16940 | 35871 ft | 485 kts | 350° |
| 2026-05-03 21:33 | 31.20662 | -90.17094 | 36421 ft | 484 kts | 350° |
| 2026-05-03 21:34 | 31.24004 | -90.17248 | 36907 ft | 485 kts | 349° |
| 2026-05-03 21:34 | 31.27361 | -90.17403 | 37369 ft | 484 kts | 349° |
| 2026-05-03 21:34 | 31.30707 | -90.17557 | 37851 ft | 483 kts | 349° |
| 2026-05-03 21:34 | 31.34055 | -90.17714 | 38159 ft | 485 kts | 349° |
| 2026-05-03 21:35 | 31.40769 | -90.18025 | 38160 ft | 483 kts | 350° |
| 2026-05-03 21:35 | 31.47431 | -90.18333 | 38162 ft | 481 kts | 349° |
| 2026-05-03 21:36 | 31.54120 | -90.18645 | 38162 ft | 483 kts | 350° |
| 2026-05-03 21:36 | 31.60793 | -90.18954 | 38161 ft | 482 kts | 350° |
| 2026-05-03 21:37 | 31.67460 | -90.19266 | 38161 ft | 482 kts | 350° |
| 2026-05-03 21:37 | 31.74142 | -90.19577 | 38160 ft | 482 kts | 350° |
| 2026-05-03 21:38 | 31.80795 | -90.19888 | 38158 ft | 482 kts | 350° |
| 2026-05-03 21:38 | 31.87504 | -90.20203 | 38159 ft | 483 kts | 350° |
| 2026-05-03 21:39 | 31.94216 | -90.20516 | 38157 ft | 483 kts | 350° |
| 2026-05-03 21:39 | 32.00862 | -90.20828 | 38156 ft | 483 kts | 350° |
| 2026-05-03 21:40 | 32.07579 | -90.21144 | 38155 ft | 483 kts | 350° |
| 2026-05-03 21:40 | 32.14255 | -90.21458 | 38151 ft | 483 kts | 350° |
| 2026-05-03 21:41 | 32.20919 | -90.21771 | 38150 ft | 481 kts | 350° |
| 2026-05-03 21:41 | 32.27594 | -90.22087 | 38149 ft | 482 kts | 350° |
| 2026-05-03 21:42 | 32.34267 | -90.22403 | 38150 ft | 482 kts | 350° |
| 2026-05-03 21:42 | 32.40930 | -90.22718 | 38147 ft | 481 kts | 350° |
| 2026-05-03 21:43 | 32.47575 | -90.23032 | 38146 ft | 480 kts | 350° |
| 2026-05-03 21:43 | 32.54216 | -90.23349 | 38135 ft | 481 kts | 351° |
| 2026-05-03 21:44 | 32.60850 | -90.23663 | 38126 ft | 479 kts | 351° |
| 2026-05-03 21:44 | 32.67509 | -90.23981 | 38128 ft | 479 kts | 351° |
| 2026-05-03 21:45 | 32.74147 | -90.24297 | 38128 ft | 478 kts | 351° |
| 2026-05-03 21:45 | 32.80722 | -90.24612 | 38129 ft | 477 kts | 351° |
| 2026-05-03 21:46 | 32.87347 | -90.24929 | 38129 ft | 476 kts | 351° |
| 2026-05-03 21:46 | 32.93948 | -90.25245 | 38131 ft | 476 kts | 351° |
| 2026-05-03 21:47 | 33.00532 | -90.25562 | 38132 ft | 476 kts | 351° |
| 2026-05-03 21:47 | 33.07103 | -90.25877 | 38134 ft | 475 kts | 352° |
| 2026-05-03 21:48 | 33.13694 | -90.26194 | 38132 ft | 474 kts | 352° |
| 2026-05-03 21:48 | 33.20274 | -90.26511 | 38133 ft | 475 kts | 352° |
| 2026-05-03 21:49 | 33.26824 | -90.26827 | 38134 ft | 475 kts | 352° |
| 2026-05-03 21:49 | 33.33401 | -90.27145 | 38136 ft | 475 kts | 352° |
| 2026-05-03 21:50 | 33.39950 | -90.27462 | 38136 ft | 474 kts | 352° |
| 2026-05-03 21:50 | 33.46512 | -90.27611 | 38121 ft | 478 kts | 359° |
| 2026-05-03 21:51 | 33.53142 | -90.26503 | 38138 ft | 482 kts | 3° |
| 2026-05-03 21:51 | 33.59738 | -90.25282 | 38136 ft | 482 kts | 4° |
| 2026-05-03 21:52 | 33.66328 | -90.24052 | 38135 ft | 482 kts | 4° |
| 2026-05-03 21:52 | 33.72941 | -90.22816 | 38132 ft | 482 kts | 4° |
| 2026-05-03 21:53 | 33.79527 | -90.21581 | 38126 ft | 482 kts | 4° |
| 2026-05-03 21:53 | 33.86130 | -90.20342 | 38122 ft | 481 kts | 4° |
| 2026-05-03 21:54 | 33.92690 | -90.19109 | 38120 ft | 482 kts | 4° |
| 2026-05-03 21:54 | 33.99329 | -90.17857 | 38118 ft | 482 kts | 4° |
| 2026-05-03 21:55 | 34.05899 | -90.16618 | 38116 ft | 481 kts | 4° |
| 2026-05-03 21:55 | 34.12509 | -90.15370 | 38115 ft | 481 kts | 4° |
| 2026-05-03 21:56 | 34.19067 | -90.14129 | 38114 ft | 481 kts | 4° |
| 2026-05-03 21:56 | 34.25679 | -90.12875 | 38114 ft | 480 kts | 4° |
| 2026-05-03 21:57 | 34.32241 | -90.11630 | 38114 ft | 480 kts | 4° |
| 2026-05-03 21:57 | 34.38792 | -90.10384 | 38113 ft | 479 kts | 4° |
| 2026-05-03 21:58 | 34.45367 | -90.09132 | 38111 ft | 479 kts | 4° |
| 2026-05-03 21:58 | 34.51920 | -90.07883 | 38111 ft | 478 kts | 4° |
| 2026-05-03 21:59 | 34.58477 | -90.06631 | 38109 ft | 478 kts | 4° |
| 2026-05-03 21:59 | 34.64988 | -90.05383 | 38107 ft | 477 kts | 4° |
| 2026-05-03 22:00 | 34.71521 | -90.04130 | 38106 ft | 476 kts | 4° |
| 2026-05-03 22:00 | 34.78009 | -90.02885 | 38111 ft | 475 kts | 4° |
| 2026-05-03 22:01 | 34.84504 | -90.01635 | 38100 ft | 474 kts | 4° |
| 2026-05-03 22:01 | 34.91008 | -90.00386 | 38123 ft | 473 kts | 4° |
| 2026-05-03 22:02 | 34.97502 | -89.99125 | 38118 ft | 477 kts | 5° |
| 2026-05-03 22:02 | 35.03806 | -89.96627 | 38106 ft | 487 kts | 21° |
| 2026-05-03 22:03 | 35.09671 | -89.92426 | 38125 ft | 490 kts | 26° |
| 2026-05-03 22:03 | 35.15492 | -89.88145 | 38098 ft | 489 kts | 25° |
| 2026-05-03 22:04 | 35.21306 | -89.83881 | 38102 ft | 489 kts | 26° |
| 2026-05-03 22:04 | 35.27089 | -89.79630 | 38075 ft | 488 kts | 26° |
| 2026-05-03 22:05 | 35.32896 | -89.75359 | 38079 ft | 487 kts | 25° |
| 2026-05-03 22:05 | 35.38661 | -89.71111 | 38077 ft | 487 kts | 25° |
| 2026-05-03 22:06 | 35.44436 | -89.66846 | 38098 ft | 486 kts | 25° |
| 2026-05-03 22:06 | 35.50207 | -89.62579 | 38089 ft | 486 kts | 26° |
| 2026-05-03 22:07 | 35.55990 | -89.58302 | 38107 ft | 485 kts | 26° |
| 2026-05-03 22:07 | 35.61724 | -89.54044 | 38103 ft | 485 kts | 26° |
| 2026-05-03 22:08 | 35.67516 | -89.49739 | 38101 ft | 485 kts | 25° |
| 2026-05-03 22:08 | 35.73260 | -89.45463 | 38098 ft | 486 kts | 25° |
| 2026-05-03 22:09 | 35.79031 | -89.41159 | 38100 ft | 486 kts | 25° |
| 2026-05-03 22:10 | 35.87651 | -89.34715 | 38111 ft | 486 kts | 26° |
| 2026-05-03 22:10 | 35.93411 | -89.30404 | 38098 ft | 486 kts | 26° |
| 2026-05-03 22:11 | 35.99152 | -89.26100 | 38108 ft | 487 kts | 26° |
| 2026-05-03 22:11 | 36.04934 | -89.21751 | 38100 ft | 484 kts | 26° |
| 2026-05-03 22:12 | 36.10656 | -89.17442 | 38094 ft | 485 kts | 25° |
| 2026-05-03 22:12 | 36.16376 | -89.13125 | 38086 ft | 485 kts | 25° |
| 2026-05-03 22:13 | 36.22129 | -89.08781 | 38084 ft | 484 kts | 25° |
| 2026-05-03 22:13 | 36.27855 | -89.04450 | 38073 ft | 484 kts | 25° |
| 2026-05-03 22:14 | 36.33604 | -89.00095 | 38049 ft | 486 kts | 25° |
| 2026-05-03 22:14 | 36.39347 | -88.95737 | 38054 ft | 486 kts | 25° |
| 2026-05-03 22:15 | 36.45084 | -88.91376 | 38054 ft | 486 kts | 25° |
| 2026-05-03 22:15 | 36.50832 | -88.86999 | 38054 ft | 486 kts | 25° |
| 2026-05-03 22:16 | 36.56536 | -88.82645 | 38053 ft | 486 kts | 25° |
| 2026-05-03 22:16 | 36.62315 | -88.78230 | 38052 ft | 487 kts | 25° |
| 2026-05-03 22:17 | 36.68066 | -88.73826 | 38049 ft | 487 kts | 25° |
| 2026-05-03 22:17 | 36.73820 | -88.69413 | 38050 ft | 487 kts | 25° |
| 2026-05-03 22:18 | 36.79563 | -88.64999 | 38046 ft | 487 kts | 25° |
| 2026-05-03 22:18 | 36.85290 | -88.60590 | 38046 ft | 486 kts | 25° |
| 2026-05-03 22:19 | 36.91029 | -88.56165 | 38049 ft | 486 kts | 25° |
| 2026-05-03 22:19 | 36.96737 | -88.51756 | 38049 ft | 486 kts | 24° |
| 2026-05-03 22:20 | 37.02493 | -88.47301 | 38049 ft | 487 kts | 24° |
| 2026-05-03 22:20 | 37.08232 | -88.42850 | 38048 ft | 486 kts | 24° |
| 2026-05-03 22:21 | 37.13898 | -88.38450 | 38051 ft | 486 kts | 24° |
| 2026-05-03 22:21 | 37.19632 | -88.33989 | 38040 ft | 486 kts | 25° |
| 2026-05-03 22:22 | 37.25394 | -88.29497 | 38037 ft | 487 kts | 25° |
| 2026-05-03 22:22 | 37.31093 | -88.25047 | 38037 ft | 486 kts | 25° |
| 2026-05-03 22:23 | 37.36828 | -88.20558 | 38040 ft | 487 kts | 24° |
| 2026-05-03 22:23 | 37.42527 | -88.16089 | 38039 ft | 487 kts | 24° |
| 2026-05-03 22:24 | 37.48264 | -88.11582 | 38037 ft | 487 kts | 24° |
| 2026-05-03 22:24 | 37.54014 | -88.07056 | 38035 ft | 487 kts | 24° |
| 2026-05-03 22:25 | 37.59717 | -88.02560 | 38033 ft | 486 kts | 24° |
| 2026-05-03 22:25 | 37.65438 | -87.98040 | 38033 ft | 487 kts | 24° |
| 2026-05-03 22:26 | 37.71149 | -87.93521 | 38032 ft | 487 kts | 24° |
| 2026-05-03 22:26 | 37.76842 | -87.89006 | 38029 ft | 485 kts | 24° |
| 2026-05-03 22:27 | 37.82526 | -87.84493 | 38027 ft | 486 kts | 24° |
| 2026-05-03 22:27 | 37.88230 | -87.79952 | 38024 ft | 484 kts | 24° |
| 2026-05-03 22:28 | 37.93949 | -87.75462 | 38030 ft | 481 kts | 21° |
| 2026-05-03 22:28 | 37.99748 | -87.71401 | 38021 ft | 481 kts | 20° |
| 2026-05-03 22:29 | 38.05620 | -87.67263 | 38017 ft | 482 kts | 20° |
| 2026-05-03 22:29 | 38.11398 | -87.63174 | 38014 ft | 482 kts | 21° |
| 2026-05-03 22:30 | 38.17245 | -87.59026 | 38025 ft | 482 kts | 21° |
| 2026-05-03 22:30 | 38.23074 | -87.54887 | 38022 ft | 482 kts | 20° |
| 2026-05-03 22:31 | 38.28918 | -87.50729 | 38024 ft | 482 kts | 21° |
| 2026-05-03 22:31 | 38.34747 | -87.46572 | 38005 ft | 483 kts | 20° |
| 2026-05-03 22:32 | 38.40564 | -87.42418 | 38010 ft | 482 kts | 20° |
| 2026-05-03 22:32 | 38.46358 | -87.38275 | 37998 ft | 481 kts | 20° |
| 2026-05-03 22:33 | 38.52187 | -87.34093 | 37992 ft | 482 kts | 21° |
| 2026-05-03 22:33 | 38.58011 | -87.29916 | 37999 ft | 482 kts | 21° |
| 2026-05-03 22:34 | 38.63822 | -87.25733 | 37998 ft | 482 kts | 21° |
| 2026-05-03 22:34 | 38.69654 | -87.21524 | 37996 ft | 482 kts | 21° |
| 2026-05-03 22:35 | 38.75462 | -87.17329 | 37996 ft | 482 kts | 21° |
| 2026-05-03 22:35 | 38.81273 | -87.13135 | 37992 ft | 483 kts | 21° |
| 2026-05-03 22:36 | 38.87119 | -87.08893 | 37994 ft | 482 kts | 21° |
| 2026-05-03 22:36 | 38.92919 | -87.04676 | 37997 ft | 483 kts | 21° |
| 2026-05-03 22:37 | 38.98725 | -87.00453 | 37978 ft | 481 kts | 21° |
| 2026-05-03 22:37 | 39.04545 | -86.96206 | 37997 ft | 481 kts | 21° |
| 2026-05-03 22:38 | 39.10213 | -86.92068 | 37996 ft | 482 kts | 21° |
| 2026-05-03 22:38 | 39.16130 | -86.87740 | 37987 ft | 482 kts | 21° |
| 2026-05-03 22:39 | 39.21938 | -86.83484 | 37989 ft | 481 kts | 21° |
| 2026-05-03 22:39 | 39.27741 | -86.79221 | 37987 ft | 482 kts | 21° |
| 2026-05-03 22:40 | 39.33527 | -86.74957 | 37980 ft | 480 kts | 21° |
| 2026-05-03 22:40 | 39.39283 | -86.70715 | 37983 ft | 481 kts | 21° |
| 2026-05-03 22:41 | 39.45059 | -86.66447 | 37978 ft | 481 kts | 21° |
| 2026-05-03 22:41 | 39.50851 | -86.62155 | 37974 ft | 480 kts | 21° |
| 2026-05-03 22:42 | 39.56603 | -86.57889 | 37959 ft | 479 kts | 21° |
| 2026-05-03 22:42 | 39.62362 | -86.53610 | 37968 ft | 480 kts | 21° |
| 2026-05-03 22:43 | 39.68160 | -86.49294 | 37957 ft | 480 kts | 21° |
| 2026-05-03 22:43 | 39.73901 | -86.45003 | 37958 ft | 480 kts | 21° |
| 2026-05-03 22:44 | 39.79677 | -86.40688 | 37951 ft | 480 kts | 21° |
| 2026-05-03 22:44 | 39.85459 | -86.36327 | 37957 ft | 483 kts | 24° |
| 2026-05-03 22:45 | 39.90802 | -86.30943 | 37954 ft | 492 kts | 32° |
| 2026-05-03 22:45 | 39.96048 | -86.25234 | 37955 ft | 492 kts | 32° |
| 2026-05-03 22:46 | 40.01269 | -86.19514 | 37956 ft | 492 kts | 32° |
| 2026-05-03 22:46 | 40.06487 | -86.13783 | 37956 ft | 492 kts | 32° |
| 2026-05-03 22:47 | 40.11776 | -86.08168 | 37960 ft | 491 kts | 31° |
| 2026-05-03 22:47 | 40.17067 | -86.02568 | 37962 ft | 491 kts | 31° |
| 2026-05-03 22:48 | 40.22341 | -85.96973 | 37961 ft | 491 kts | 31° |
| 2026-05-03 22:48 | 40.27623 | -85.91358 | 37962 ft | 491 kts | 31° |
| 2026-05-03 22:49 | 40.32910 | -85.85726 | 37961 ft | 491 kts | 31° |
| 2026-05-03 22:49 | 40.38195 | -85.80084 | 37962 ft | 490 kts | 31° |
| 2026-05-03 22:50 | 40.43433 | -85.74481 | 37954 ft | 489 kts | 31° |
| 2026-05-03 22:50 | 40.46090 | -85.71639 | 37719 ft | 492 kts | 31° |
| 2026-05-03 22:50 | 40.48694 | -85.68843 | 37478 ft | 491 kts | 31° |
| 2026-05-03 22:50 | 40.51323 | -85.66013 | 37222 ft | 481 kts | 31° |
| 2026-05-03 22:51 | 40.53875 | -85.63264 | 36963 ft | 471 kts | 30° |
| 2026-05-03 22:51 | 40.56379 | -85.60569 | 36711 ft | 464 kts | 30° |
| 2026-05-03 22:51 | 40.58849 | -85.57915 | 36468 ft | 465 kts | 30° |
| 2026-05-03 22:51 | 40.61368 | -85.55205 | 36112 ft | 467 kts | 30° |
| 2026-05-03 22:52 | 40.63848 | -85.52525 | 35741 ft | 461 kts | 30° |
| 2026-05-03 22:52 | 40.66320 | -85.49850 | 35368 ft | 455 kts | 29° |
| 2026-05-03 22:52 | 40.68717 | -85.47192 | 34992 ft | 453 kts | 31° |
| 2026-05-03 22:52 | 40.71055 | -85.44447 | 34625 ft | 451 kts | 31° |
| 2026-05-03 22:53 | 40.73394 | -85.41705 | 34258 ft | 448 kts | 31° |
| 2026-05-03 22:53 | 40.75713 | -85.38988 | 33892 ft | 448 kts | 31° |
| 2026-05-03 22:53 | 40.78051 | -85.36261 | 33588 ft | 459 kts | 31° |
| 2026-05-03 22:53 | 40.80463 | -85.33443 | 33411 ft | 473 kts | 32° |
| 2026-05-03 22:54 | 40.82941 | -85.30539 | 33213 ft | 483 kts | 32° |
| 2026-05-03 22:54 | 40.85449 | -85.27580 | 32997 ft | 478 kts | 33° |
| 2026-05-03 22:54 | 40.87793 | -85.24501 | 32760 ft | 482 kts | 39° |
| 2026-05-03 22:54 | 40.89990 | -85.21173 | 32550 ft | 485 kts | 40° |
| 2026-05-03 22:55 | 40.92230 | -85.17767 | 32355 ft | 497 kts | 41° |
| 2026-05-03 22:55 | 40.94503 | -85.14284 | 32141 ft | 498 kts | 41° |
| 2026-05-03 22:55 | 40.96731 | -85.10856 | 31875 ft | 492 kts | 41° |
| 2026-05-03 22:55 | 40.98940 | -85.07456 | 31615 ft | 489 kts | 41° |
| 2026-05-03 22:56 | 41.01145 | -85.04061 | 31354 ft | 487 kts | 41° |
| 2026-05-03 22:56 | 41.03355 | -85.00656 | 31096 ft | 487 kts | 41° |
| 2026-05-03 22:56 | 41.05559 | -84.97258 | 30839 ft | 489 kts | 41° |
| 2026-05-03 22:56 | 41.07765 | -84.93848 | 30580 ft | 485 kts | 41° |
| 2026-05-03 22:57 | 41.09931 | -84.90496 | 30321 ft | 484 kts | 41° |
| 2026-05-03 22:57 | 41.12111 | -84.87122 | 30081 ft | 485 kts | 41° |
| 2026-05-03 22:57 | 41.14297 | -84.83734 | 29837 ft | 484 kts | 41° |
| 2026-05-03 22:57 | 41.16478 | -84.80361 | 29640 ft | 477 kts | 40° |
| 2026-05-03 22:58 | 41.18711 | -84.77266 | 29641 ft | 458 kts | 37° |
| 2026-05-03 22:58 | 41.23144 | -84.71260 | 29641 ft | 455 kts | 37° |
| 2026-05-03 22:59 | 41.27542 | -84.65260 | 29654 ft | 455 kts | 37° |
| 2026-05-03 22:59 | 41.29739 | -84.62255 | 29528 ft | 458 kts | 37° |
| 2026-05-03 22:59 | 41.31960 | -84.59216 | 29287 ft | 464 kts | 37° |
| 2026-05-03 22:59 | 41.34272 | -84.56063 | 29069 ft | 485 kts | 38° |
| 2026-05-03 23:00 | 41.36639 | -84.52821 | 28835 ft | 487 kts | 38° |
| 2026-05-03 23:00 | 41.38966 | -84.49617 | 28585 ft | 481 kts | 38° |
| 2026-05-03 23:00 | 41.41272 | -84.46450 | 28347 ft | 481 kts | 38° |
| 2026-05-03 23:00 | 41.43648 | -84.43408 | 28112 ft | 471 kts | 31° |
| 2026-05-03 23:01 | 41.46292 | -84.40894 | 27892 ft | 464 kts | 25° |
| 2026-05-03 23:01 | 41.48982 | -84.38572 | 27582 ft | 462 kts | 25° |
| 2026-05-03 23:01 | 41.51658 | -84.36284 | 27212 ft | 459 kts | 24° |
| 2026-05-03 23:01 | 41.54366 | -84.33992 | 26834 ft | 456 kts | 25° |
| 2026-05-03 23:02 | 41.57030 | -84.31747 | 26452 ft | 453 kts | 25° |
| 2026-05-03 23:02 | 41.59671 | -84.29524 | 26070 ft | 451 kts | 25° |
| 2026-05-03 23:02 | 41.62324 | -84.27290 | 25684 ft | 449 kts | 25° |
| 2026-05-03 23:02 | 41.64953 | -84.25078 | 25300 ft | 447 kts | 25° |
| 2026-05-03 23:03 | 41.67544 | -84.22895 | 24920 ft | 444 kts | 25° |
| 2026-05-03 23:03 | 41.70148 | -84.20699 | 24537 ft | 442 kts | 25° |
| 2026-05-03 23:03 | 41.72699 | -84.18445 | 24142 ft | 443 kts | 29° |
| 2026-05-03 23:03 | 41.75063 | -84.15708 | 23733 ft | 449 kts | 38° |
| 2026-05-03 23:04 | 41.77169 | -84.12695 | 23353 ft | 447 kts | 40° |
| 2026-05-03 23:04 | 41.79279 | -84.09641 | 22969 ft | 443 kts | 40° |
| 2026-05-03 23:04 | 41.81343 | -84.06658 | 22590 ft | 440 kts | 40° |
| 2026-05-03 23:04 | 41.83411 | -84.03670 | 22209 ft | 438 kts | 40° |
| 2026-05-03 23:05 | 41.85486 | -84.00674 | 21824 ft | 435 kts | 41° |
| 2026-05-03 23:05 | 41.87517 | -83.97739 | 21385 ft | 432 kts | 41° |
| 2026-05-03 23:05 | 41.89560 | -83.94785 | 20881 ft | 437 kts | 41° |
| 2026-05-03 23:05 | 41.91625 | -83.91799 | 20385 ft | 438 kts | 41° |
| 2026-05-03 23:06 | 41.93700 | -83.88786 | 19872 ft | 433 kts | 42° |
| 2026-05-03 23:06 | 41.95732 | -83.85838 | 19370 ft | 431 kts | 42° |
| 2026-05-03 23:06 | 41.97750 | -83.82922 | 18869 ft | 428 kts | 42° |
| 2026-05-03 23:06 | 41.99776 | -83.80025 | 18363 ft | 424 kts | 42° |
| 2026-05-03 23:07 | 42.01738 | -83.77205 | 17808 ft | 394 kts | 42° |
| 2026-05-03 23:07 | 42.03502 | -83.74661 | 17277 ft | 359 kts | 41° |
| 2026-05-03 23:07 | 42.05138 | -83.72304 | 16745 ft | 332 kts | 41° |
| 2026-05-03 23:07 | 42.06658 | -83.70119 | 16238 ft | 317 kts | 41° |
| 2026-05-03 23:08 | 42.08155 | -83.67974 | 15734 ft | 314 kts | 42° |
| 2026-05-03 23:08 | 42.09423 | -83.65569 | 15206 ft | 317 kts | 59° |
| 2026-05-03 23:08 | 42.10120 | -83.62773 | 14705 ft | 317 kts | 73° |
| 2026-05-03 23:08 | 42.10600 | -83.59907 | 14105 ft | 317 kts | 74° |
| 2026-05-03 23:09 | 42.11084 | -83.57017 | 13498 ft | 316 kts | 74° |
| 2026-05-03 23:09 | 42.11566 | -83.54115 | 12866 ft | 316 kts | 75° |
| 2026-05-03 23:09 | 42.12036 | -83.51263 | 12251 ft | 312 kts | 75° |
| 2026-05-03 23:09 | 42.12489 | -83.48458 | 11631 ft | 309 kts | 76° |
| 2026-05-03 23:10 | 42.12924 | -83.45630 | 11014 ft | 307 kts | 76° |
| 2026-05-03 23:10 | 42.13372 | -83.42806 | 10398 ft | 308 kts | 76° |
| 2026-05-03 23:10 | 42.13827 | -83.40007 | 9796 ft | 310 kts | 76° |
| 2026-05-03 23:10 | 42.14296 | -83.37174 | 9174 ft | 309 kts | 76° |
| 2026-05-03 23:11 | 42.14765 | -83.34408 | 8543 ft | 302 kts | 76° |
| 2026-05-03 23:11 | 42.15232 | -83.31690 | 7911 ft | 297 kts | 76° |
| 2026-05-03 23:11 | 42.15699 | -83.28985 | 7466 ft | 295 kts | 76° |
| 2026-05-03 23:11 | 42.16166 | -83.26294 | 7094 ft | 297 kts | 76° |
| 2026-05-03 23:12 | 42.16626 | -83.23648 | 6693 ft | 286 kts | 76° |
| 2026-05-03 23:12 | 42.17281 | -83.21228 | 6309 ft | 271 kts | 53° |
| 2026-05-03 23:12 | 42.18572 | -83.19373 | 6036 ft | 268 kts | 37° |
| 2026-05-03 23:12 | 42.20021 | -83.17903 | 5714 ft | 255 kts | 23° |
| 2026-05-03 23:13 | 42.21563 | -83.16902 | 5322 ft | 238 kts | 16° |
| 2026-05-03 23:13 | 42.23074 | -83.16083 | 5086 ft | 232 kts | 14° |
| 2026-05-03 23:13 | 42.24573 | -83.15314 | 4854 ft | 230 kts | 14° |
| 2026-05-03 23:13 | 42.26031 | -83.14555 | 4701 ft | 219 kts | 14° |
| 2026-05-03 23:14 | 42.27419 | -83.13822 | 4552 ft | 209 kts | 14° |
| 2026-05-03 23:14 | 42.28760 | -83.13186 | 4484 ft | 203 kts | 2° |
| 2026-05-03 23:14 | 42.30099 | -83.13345 | 4378 ft | 190 kts | 335° |
| 2026-05-03 23:14 | 42.31309 | -83.13975 | 4259 ft | 185 kts | 324° |
| 2026-05-03 23:15 | 42.32556 | -83.14521 | 4073 ft | 193 kts | 342° |
| 2026-05-03 23:15 | 42.33885 | -83.14753 | 3950 ft | 192 kts | 343° |
| 2026-05-03 23:15 | 42.35191 | -83.15051 | 3855 ft | 187 kts | 331° |
| 2026-05-03 23:15 | 42.36147 | -83.16100 | 3522 ft | 171 kts | 292° |
| 2026-05-03 23:16 | 42.36264 | -83.17474 | 3517 ft | 132 kts | 256° |
| 2026-05-03 23:16 | 42.35979 | -83.18600 | 3504 ft | 125 kts | 249° |
| 2026-05-03 23:16 | 42.35666 | -83.19676 | 3323 ft | 120 kts | 248° |
| 2026-05-03 23:16 | 42.35328 | -83.20679 | 3286 ft | 119 kts | 245° |
| 2026-05-03 23:17 | 42.34951 | -83.21683 | 3332 ft | 119 kts | 243° |
| 2026-05-03 23:17 | 42.34491 | -83.22631 | 3380 ft | 120 kts | 234° |
| 2026-05-03 23:17 | 42.33923 | -83.23479 | 3375 ft | 124 kts | 230° |
| 2026-05-03 23:17 | 42.33308 | -83.24292 | 3273 ft | 123 kts | 229° |
| 2026-05-03 23:18 | 42.32645 | -83.25040 | 3119 ft | 125 kts | 221° |
| 2026-05-03 23:18 | 42.31944 | -83.25715 | 2902 ft | 123 kts | 222° |
| 2026-05-03 23:18 | 42.31261 | -83.26402 | 2703 ft | 122 kts | 221° |
| 2026-05-03 23:18 | 42.30549 | -83.27016 | 2560 ft | 123 kts | 211° |
| 2026-05-03 23:19 | 42.29768 | -83.27528 | 2408 ft | 124 kts | 215° |
| 2026-05-03 23:19 | 42.29032 | -83.28145 | 2229 ft | 124 kts | 217° |
| 2026-05-03 23:19 | 42.28292 | -83.28706 | 2060 ft | 124 kts | 212° |
| 2026-05-03 23:19 | 42.27569 | -83.29309 | 1882 ft | 121 kts | 209° |
| 2026-05-03 23:20 | 42.26813 | -83.29843 | 1739 ft | 123 kts | 209° |
| 2026-05-03 23:20 | 42.26065 | -83.30370 | 1597 ft | 118 kts | 209° |
| 2026-05-03 23:20 | 42.25305 | -83.30939 | 1428 ft | 132 kts | 211° |
| 2026-05-03 23:20 | 42.24486 | -83.31529 | 1318 ft | 134 kts | 208° |
| 2026-05-03 23:21 | 42.23696 | -83.32129 | 1117 ft | 127 kts | 211° |
| 2026-05-03 23:21 | 42.22916 | -83.32684 | 872 ft | 128 kts | 210° |
| 2026-05-03 23:21 | 42.22143 | -83.33277 | 704 ft | 125 kts | 209° |
| 2026-05-03 23:21 | 42.21387 | -83.33823 | 642 ft | 119 kts | 210° |
| 2026-05-03 23:22 | 42.20637 | -83.34416 | 638 ft | 27 kts | 229° |
| 2026-05-03 23:22 | 42.20589 | -83.34531 | 638 ft | 11 kts | 240° |
| 2026-05-03 23:22 | 42.20539 | -83.34639 | 638 ft | 15 kts | 238° |
| 2026-05-03 23:23 | 42.20469 | -83.34760 | 638 ft | 16 kts | 220° |
| 2026-05-03 23:23 | 42.20377 | -83.34836 | 638 ft | 14 kts | 207° |
| 2026-05-03 23:23 | 42.20293 | -83.34896 | 638 ft | 12 kts | 210° |
| 2026-05-03 23:23 | 42.20217 | -83.34953 | 638 ft | 12 kts | 216° |
| 2026-05-03 23:24 | 42.20179 | -83.35072 | 638 ft | 16 kts | 267° |
| 2026-05-03 23:24 | 42.20177 | -83.35223 | 639 ft | 15 kts | 268° |
| 2026-05-03 23:24 | 42.20175 | -83.35355 | 641 ft | 12 kts | 269° |
| 2026-05-03 23:24 | 42.20173 | -83.35474 | 641 ft | 12 kts | 268° |
| 2026-05-03 23:25 | 42.20171 | -83.35595 | 641 ft | 13 kts | 269° |
| 2026-05-03 23:25 | 42.20169 | -83.35714 | 641 ft | 12 kts | 268° |
| 2026-05-03 23:25 | 42.20166 | -83.35844 | 641 ft | 15 kts | 270° |
| 2026-05-03 23:25 | 42.20161 | -83.35997 | 641 ft | 16 kts | 266° |
| 2026-05-03 23:26 | 42.20161 | -83.36150 | 641 ft | 16 kts | 275° |
| 2026-05-03 23:26 | 42.20178 | -83.36295 | 641 ft | 15 kts | 281° |
| 2026-05-03 23:26 | 42.20229 | -83.36399 | 641 ft | 13 kts | 346° |
| 2026-05-03 23:26 | 42.20340 | -83.36361 | 641 ft | 19 kts | 28° |
| 2026-05-03 23:27 | 42.20452 | -83.36277 | 645 ft | 17 kts | 29° |
| 2026-05-03 23:27 | 42.20555 | -83.36202 | 645 ft | 16 kts | 30° |
| 2026-05-03 23:27 | 42.20661 | -83.36123 | 645 ft | 17 kts | 30° |
| 2026-05-03 23:27 | 42.20760 | -83.36049 | 645 ft | 15 kts | 28° |
| 2026-05-03 23:28 | 42.20848 | -83.35986 | 645 ft | 13 kts | 28° |
| 2026-05-03 23:28 | 42.20892 | -83.35933 | 645 ft | 6 kts | 72° |
| 2026-05-03 23:28 | 42.20889 | -83.35892 | 645 ft | 4 kts | 107° |
| 2026-05-03 23:28 | 42.20880 | -83.35860 | 645 ft | 3 kts | 116° |
| 2026-05-03 23:29 | 42.20873 | -83.35841 | 645 ft | 1 kts | 117° |
| 2026-05-03 23:29 | 42.20871 | -83.35836 | 645 ft | 0 kts | 118° |